^^
Saratoga-Weather Station Historical Data
Daily Summary for June 14, 2021 Units:  English    Metric   Both
Daily Weekly Monthly Yearly Custom
  High: Low: Average:
Temperature: 41.4 °F 31.6 °F 34.3 °F
Dew Point: 40.1 °F 30.7 °F 33.1 °F
Humidity: 97% 92% 96%
Wind Speed: 6.9mph 0mph 1.1mph
Wind Gust: 9mph - -
Wind- - SSW
Pressure: 30.1 in 30 in -
Precipitation: 0.35 in    
Historical Graphs
 
 
Tabular Data for June 14, 2021
Time Temperature Dew Point Pressure Wind Wind Speed Wind Gust Humidity Rainfall Rate (Hourly) solar
00:04 41.4 °F 40.1 °F 30 in West 2 mph 8 mph 95% 0.02 in 0 W/m2
00:09 41.2 °F 39.9 °F 30 in WNW 2 mph 4 mph 95% 0.02 in 0 W/m2
00:14 41.2 °F 39.9 °F 30 in WNW 2 mph 8 mph 95% 0.02 in 0 W/m2
00:19 41 °F 39.7 °F 30 in WNW 2 mph 2 mph 95% 0.02 in 0 W/m2
00:24 41 °F 39.7 °F 30 in WNW 2 mph 5 mph 95% 0.02 in 0 W/m2
00:29 40.8 °F 39.6 °F 30 in WNW 0.9 mph 5 mph 95% 0.02 in 0 W/m2
00:34 40.8 °F 39.6 °F 30 in West 2 mph 3 mph 95% 0.02 in 0 W/m2
00:39 40.6 °F 39.4 °F 30 in West 2 mph 5 mph 95% 0.02 in 0 W/m2
00:44 40.6 °F 39.4 °F 30 in West 4 mph 4 mph 95% 0.02 in 0 W/m2
00:49 40.6 °F 39.4 °F 30 in NW 2 mph 6 mph 95% 0.02 in 0 W/m2
00:55 40.6 °F 39.4 °F 30 in WNW 0.9 mph 4 mph 95% 0.02 in 0 W/m2
01:00 40.5 °F 38.8 °F 30 in West 2 mph 5 mph 94% 0.02 in 0 W/m2
01:05 40.3 °F 38.7 °F 30 in WNW 4 mph 6 mph 94% 0.02 in 0 W/m2
01:10 39.9 °F 38.1 °F 30 in WNW 2 mph 8 mph 93% 0.02 in 0 W/m2
01:15 39.7 °F 37.9 °F 30 in West 2.9 mph 6 mph 93% 0.02 in 0 W/m2
01:20 39.4 °F 37.6 °F 30 in NW 4 mph 7 mph 93% 0.02 in 0 W/m2
01:25 39.4 °F 37.6 °F 30 in WNW 2.9 mph 6 mph 93% 0.02 in 0 W/m2
01:30 39.2 °F 37.4 °F 30 in West 2 mph 2 mph 93% 0.01 in 0 W/m2
01:35 39 °F 36.9 °F 30 in WSW 2.9 mph 5 mph 92% 0.01 in 0 W/m2
01:40 38.8 °F 37 °F 30 in West 0.9 mph 3 mph 93% 0.01 in 0 W/m2
01:45 38.8 °F 37 °F 30 in WNW 4 mph 6 mph 93% 0.01 in 0 W/m2
01:50 38.8 °F 37 °F 30 in WNW 2 mph 3 mph 93% 0.01 in 0 W/m2
01:55 38.7 °F 36.9 °F 30 in West 5 mph 5 mph 93% 0.01 in 0 W/m2
02:00 38.7 °F 36.9 °F 30 in West 0.9 mph 2 mph 93% 0 in 0 W/m2
02:05 38.7 °F 36.9 °F 30 in West 2 mph 4 mph 93% 0 in 0 W/m2
02:10 38.5 °F 36.7 °F 30 in NW 4 mph 4 mph 93% 0 in 0 W/m2
02:15 38.5 °F 36.7 °F 30 in West 6.9 mph 8 mph 93% 0 in 0 W/m2
02:21 38.5 °F 36.7 °F 30 in West 2.9 mph 7 mph 93% 0 in 0 W/m2
02:26 38.5 °F 36.3 °F 30 in WNW 6 mph 9 mph 92% 0 in 0 W/m2
02:31 38.5 °F 36.7 °F 30 in West 6 mph 8 mph 93% 0 in 0 W/m2
02:36 38.3 °F 36.1 °F 30 in WNW 2.9 mph 9 mph 92% 0 in 0 W/m2
02:41 38.3 °F 36.1 °F 30 in WNW 0.9 mph 8 mph 92% 0 in 0 W/m2
02:46 38.5 °F 36.3 °F 30 in West 2 mph 5 mph 92% 0 in 0 W/m2
02:51 38.5 °F 36.3 °F 30 in WNW 2 mph 8 mph 92% 0 in 0 W/m2
02:56 38.3 °F 36.1 °F 30 in West 2 mph 3 mph 92% 0 in 0 W/m2
03:01 38.3 °F 36.1 °F 30 in WSW 4 mph 6 mph 92% 0 in 0 W/m2
03:06 38.1 °F 36.3 °F 30 in WSW 2 mph 4 mph 93% 0 in 0 W/m2
03:11 38.1 °F 36.3 °F 30 in West 0.9 mph 4 mph 93% 0 in 0 W/m2
03:16 37.9 °F 36.1 °F 30 in West 2 mph 7 mph 93% 0.01 in 0 W/m2
03:26 37.8 °F 36.1 °F 30 in WSW 2 mph 7 mph 94% 0.01 in 0 W/m2
03:31 37.8 °F 36 °F 30 in NW 0.9 mph 4 mph 93% 0.01 in 0 W/m2
03:36 37.8 °F 36.1 °F 30 in Calm   2 mph 94% 0.01 in 0 W/m2
03:41 37.6 °F 36 °F 30 in Calm   3 mph 94% 0.01 in 0 W/m2
03:46 37.6 °F 36 °F 30 in West 0.9 mph 3 mph 94% 0.01 in 0 W/m2
03:51 37.4 °F 35.8 °F 30 in West 0.9 mph 2 mph 94% 0.01 in 0 W/m2
03:56 37.4 °F 35.8 °F 30 in Calm   2 mph 94% 0.01 in 0 W/m2
04:01 37.2 °F 35.6 °F 30 in Calm   3 mph 94% 0.01 in 0 W/m2
04:06 37.2 °F 35.6 °F 30 in WSW 2.9 mph 4 mph 94% 0.01 in 0 W/m2
04:11 37.2 °F 35.6 °F 30 in West 2 mph 3 mph 94% 0.01 in 0 W/m2
04:16 37.2 °F 35.6 °F 30 in WSW 4.9 mph 6 mph 94% 0 in 0 W/m2
04:21 37.4 °F 35.8 °F 30 in West 2.9 mph 3 mph 94% 0 in 0 W/m2
04:26 37.2 °F 35.6 °F 30 in WSW 5 mph 5 mph 94% 0 in 0 W/m2
04:31 37.2 °F 35.6 °F 30 in WNW 2 mph 4 mph 94% 0 in 0 W/m2
04:36 37.2 °F 35.6 °F 30 in West 2 mph 3 mph 94% 0 in 0 W/m2
04:41 37.2 °F 35.6 °F 30 in WNW 0.9 mph 4 mph 94% 0 in 0 W/m2
04:46 37 °F 35.4 °F 30 in West 2 mph 5 mph 94% 0 in 0 W/m2
04:51 37.2 °F 35.6 °F 30 in WNW 2 mph 3 mph 94% 0.01 in 0 W/m2
04:56 37 °F 35.4 °F 30 in West 2 mph 6 mph 94% 0.01 in 0 W/m2
05:01 37 °F 35.4 °F 30 in WNW 2.9 mph 7 mph 94% 0.01 in 0 W/m2
05:06 37 °F 35.4 °F 30 in WNW 2 mph 7 mph 94% 0.02 in 0 W/m2
05:11 37 °F 35.4 °F 30 in WSW 6.9 mph 7 mph 94% 0.02 in 0 W/m2
05:16 36.9 °F 35.2 °F 30 in WSW 4.9 mph 7 mph 94% 0.02 in 0 W/m2
05:21 36.9 °F 35.2 °F 30 in NW 2.9 mph 7 mph 94% 0.02 in 0 W/m2
05:26 36.7 °F 35.1 °F 30 in WNW 2 mph 3 mph 94% 0.03 in 0 W/m2
05:31 36.7 °F 35.1 °F 30 in WSW 2 mph 7 mph 94% 0.03 in 0 W/m2
05:36 36.7 °F 35.1 °F 30 in WNW 2.9 mph 3 mph 94% 0.04 in 0 W/m2
05:41 36.5 °F 34.9 °F 30 in West 2.9 mph 5 mph 94% 0.05 in 0 W/m2
05:46 36.3 °F 34.7 °F 30 in West 6 mph 7 mph 94% 0.05 in 0 W/m2
05:51 36.3 °F 34.7 °F 30 in WNW 2 mph 4 mph 94% 0.05 in 0 W/m2
05:56 36.3 °F 34.7 °F 30 in West 2 mph 4 mph 94% 0.05 in 0 W/m2
06:01 36.3 °F 34.7 °F 30 in Calm   3 mph 94% 0.06 in 0 W/m2
06:06 36.3 °F 34.7 °F 30 in West 2 mph 3 mph 94% 0.05 in 0 W/m2
06:11 36.1 °F 34.5 °F 30 in West 2.9 mph 6 mph 94% 0.05 in 0 W/m2
06:16 36.1 °F 34.5 °F 30 in West 2.9 mph 4 mph 94% 0.06 in 0 W/m2
06:21 36.1 °F 34.5 °F 30 in West 2.9 mph 6 mph 94% 0.06 in 0 W/m2
06:26 36.3 °F 34.7 °F 30 in WNW 0.9 mph 1 mph 94% 0.06 in 0 W/m2
06:31 36.3 °F 34.7 °F 30 in WNW 0.9 mph 2 mph 94% 0.06 in 0 W/m2
06:36 36.1 °F 34.5 °F 30 in WNW 2 mph 3 mph 94% 0.06 in 0 W/m2
06:41 36.1 °F 34.5 °F 30 in WSW 0.9 mph 2 mph 94% 0.06 in 0 W/m2
06:46 36.1 °F 34.5 °F 30 in WSW 0.9 mph 1 mph 94% 0.06 in 0 W/m2
06:51 36 °F 34.3 °F 30 in NW 2 mph 2 mph 94% 0.06 in 0 W/m2
06:56 36 °F 34.3 °F 30 in WNW 0.9 mph 3 mph 94% 0.06 in 0 W/m2
07:01 35.8 °F 34.2 °F 30 in West 2 mph 3 mph 94% 0.06 in 0 W/m2
07:11 35.6 °F 34.3 °F 30 in WNW 0.9 mph 3 mph 95% 0.06 in 0 W/m2
07:17 35.4 °F 34.2 °F 30 in WNW 0.9 mph 2 mph 95% 0.06 in 0 W/m2
07:22 35.4 °F 34.2 °F 30 in Calm   3 mph 95% 0.07 in 0 W/m2
07:27 35.4 °F 34.2 °F 30 in Calm     95% 0.06 in 0 W/m2
07:32 35.2 °F 34 °F 30 in WNW 0.9 mph 2 mph 95% 0.06 in 0 W/m2
07:37 35.2 °F 34 °F 30 in Calm     95% 0.06 in 0 W/m2
07:42 35.2 °F 34 °F 30 in Calm     95% 0.06 in 0 W/m2
07:47 35.1 °F 33.8 °F 30 in Calm   1 mph 95% 0.06 in 0 W/m2
07:52 35.1 °F 33.8 °F 30 in WNW 0.9 mph 1 mph 95% 0.06 in 0 W/m2
07:57 34.9 °F 33.6 °F 30 in Calm   1 mph 95% 0.06 in 0 W/m2
08:02 34.9 °F 33.6 °F 30 in Calm     95% 0.06 in 0 W/m2
08:07 34.7 °F 33.4 °F 30 in Calm   1 mph 95% 0.06 in 0 W/m2
08:12 34.7 °F 33.4 °F 30 in Calm   1 mph 95% 0.06 in 0 W/m2
08:17 34.5 °F 33.3 °F 30 in Calm     95% 0.05 in 0 W/m2
08:22 34.5 °F 33.3 °F 30.1 in Calm     95% 0.04 in 0 W/m2
08:27 34.3 °F 33.1 °F 30.1 in Calm     95% 0.05 in 0 W/m2
08:32 34.3 °F 33.1 °F 30.1 in Calm     95% 0.05 in 0 W/m2
08:37 34.3 °F 33.1 °F 30.1 in Calm     95% 0.05 in 0 W/m2
08:42 34.3 °F 33.1 °F 30.1 in Calm     95% 0.04 in 0 W/m2
08:47 34.2 °F 32.9 °F 30.1 in Calm     95% 0.05 in 0 W/m2
08:52 34.2 °F 33.1 °F 30.1 in Calm     96% 0.05 in 5 W/m2
08:57 34.2 °F 33.1 °F 30.1 in Calm     96% 0.05 in 5 W/m2
09:02 34.2 °F 32.9 °F 30.1 in Calm     95% 0.04 in 9 W/m2
09:07 34.2 °F 32.9 °F 30.1 in Calm     95% 0.04 in 11 W/m2
09:12 34 °F 32.9 °F 30.1 in Calm     96% 0.04 in 12 W/m2
09:17 34 °F 32.9 °F 30.1 in Calm     96% 0.04 in 12 W/m2
09:22 34 °F 32.9 °F 30.1 in Calm     96% 0.04 in 14 W/m2
09:27 34 °F 32.9 °F 30.1 in Calm     96% 0.03 in 12 W/m2
09:32 34 °F 32.9 °F 30.1 in Calm     96% 0.02 in 11 W/m2
09:37 33.8 °F 32.7 °F 30.1 in Calm     96% 0.02 in 12 W/m2
09:42 33.8 °F 32.7 °F 30.1 in Calm     96% 0.02 in 12 W/m2
09:47 33.6 °F 32.5 °F 30.1 in Calm     96% 0.02 in 11 W/m2
09:52 33.4 °F 32.4 °F 30.1 in Calm     96% 0.02 in 12 W/m2
09:57 33.4 °F 32.4 °F 30.1 in Calm     96% 0.02 in 14 W/m2
10:02 33.4 °F 32.4 °F 30.1 in Calm     96% 0.02 in 11 W/m2
10:07 33.3 °F 32.2 °F 30.1 in Calm     96% 0.02 in 11 W/m2
10:12 33.3 °F 32.2 °F 30.1 in Calm     96% 0.01 in 12 W/m2
10:17 33.3 °F 32.2 °F 30.1 in Calm     96% 0.01 in 9 W/m2
10:22 33.1 °F 32 °F 30.1 in Calm     96% 0.01 in 9 W/m2
10:27 33.1 °F 32 °F 30.1 in Calm     96% 0.01 in 11 W/m2
10:32 33.1 °F 32 °F 30.1 in Calm     96% 0.01 in 14 W/m2
10:37 33.1 °F 32 °F 30.1 in Calm     96% 0.01 in 18 W/m2
10:42 33.1 °F 32 °F 30.1 in Calm     96% 0.01 in 18 W/m2
10:47 33.1 °F 32 °F 30.1 in Calm     96% 0 in 16 W/m2
10:52 33.1 °F 32 °F 30.1 in Calm     96% 0 in 12 W/m2
10:57 33.1 °F 32 °F 30.1 in Calm     96% 0 in 14 W/m2
11:02 33.3 °F 32.2 °F 30.1 in Calm     96% 0 in 18 W/m2
11:07 33.3 °F 32.2 °F 30.1 in Calm   1 mph 96% 0 in 16 W/m2
11:12 33.3 °F 32.2 °F 30.1 in Calm     96% 0 in 19 W/m2
11:17 33.3 °F 32.2 °F 30.1 in Calm   1 mph 96% 0 in 14 W/m2
11:22 33.3 °F 32.2 °F 30.1 in Calm     96% 0 in 18 W/m2
11:27 33.3 °F 32.2 °F 30.1 in ENE 0.9 mph 2 mph 96% 0 in 18 W/m2
11:32 33.1 °F 32 °F 30.1 in Calm   2 mph 96% 0 in 14 W/m2
11:37 33.1 °F 32 °F 30.1 in Calm     96% 0 in 11 W/m2
11:42 33.1 °F 32 °F 30.1 in Calm   2 mph 96% 0 in 11 W/m2
11:47 33.1 °F 32 °F 30.1 in East 0.9 mph 2 mph 96% 0 in 12 W/m2
11:52 33.1 °F 32 °F 30.1 in Calm   1 mph 96% 0 in 11 W/m2
11:57 33.1 °F 32 °F 30.1 in Calm     96% 0 in 12 W/m2
12:02 33.1 °F 32 °F 30.1 in East 0.9 mph 2 mph 96% 0 in 12 W/m2
12:07 33.1 °F 32 °F 30.1 in East 0.9 mph 3 mph 96% 0 in 9 W/m2
12:12 33.1 °F 32 °F 30.1 in Calm     96% 0 in 14 W/m2
12:17 33.1 °F 32 °F 30.1 in ENE 2 mph 3 mph 96% 0 in 14 W/m2
12:22 33.1 °F 32 °F 30.1 in East 0.9 mph 3 mph 96% 0 in 14 W/m2
12:27 33.1 °F 32 °F 30.1 in Calm   2 mph 96% 0 in 12 W/m2
12:32 33.1 °F 32 °F 30.1 in East 0.9 mph 2 mph 96% 0 in 14 W/m2
12:37 33.1 °F 32 °F 30.1 in East 0.9 mph 1 mph 96% 0 in 14 W/m2
12:42 33.1 °F 32 °F 30.1 in ESE 2.9 mph 3 mph 96% 0 in 16 W/m2
12:47 33.1 °F 32 °F 30.1 in East 2 mph 3 mph 96% 0 in 19 W/m2
12:52 33.1 °F 32 °F 30.1 in East 0.9 mph 2 mph 96% 0 in 16 W/m2
12:57 33.1 °F 32 °F 30.1 in East 2 mph 2 mph 96% 0 in 18 W/m2
13:02 33.1 °F 32 °F 30.1 in East 0.9 mph 3 mph 96% 0 in 18 W/m2
13:07 33.1 °F 32 °F 30.1 in East 0.9 mph 3 mph 96% 0.01 in 14 W/m2
13:12 33.1 °F 32 °F 30.1 in ESE 0.9 mph 2 mph 96% 0.01 in 16 W/m2
13:17 33.1 °F 32 °F 30.1 in ESE 2 mph 3 mph 96% 0.01 in 21 W/m2
13:22 33.1 °F 32 °F 30.1 in ESE 0.9 mph 1 mph 96% 0.01 in 26 W/m2
13:27 33.1 °F 32 °F 30.1 in ESE 0.9 mph 2 mph 96% 0.01 in 25 W/m2
13:32 33.1 °F 32 °F 30.1 in Calm   2 mph 96% 0.01 in 25 W/m2
13:37 33.3 °F 32.2 °F 30.1 in Calm   2 mph 96% 0.02 in 26 W/m2
13:42 33.3 °F 32.2 °F 30.1 in East 0.9 mph 2 mph 96% 0.02 in 26 W/m2
13:47 33.3 °F 32.2 °F 30.1 in East 2 mph 2 mph 96% 0.02 in 30 W/m2
13:52 33.4 °F 32.4 °F 30.1 in ENE 2.9 mph 3 mph 96% 0.02 in 25 W/m2
13:57 33.4 °F 32.4 °F 30.1 in East 2 mph 4 mph 96% 0.02 in 21 W/m2
14:02 33.4 °F 32.4 °F 30.1 in East 2 mph 8 mph 96% 0.02 in 19 W/m2
14:07 33.1 °F 32 °F 30.1 in ESE 2 mph 5 mph 96% 0.02 in 16 W/m2
14:12 32.9 °F 31.8 °F 30.1 in ESE 2.9 mph 7 mph 96% 0.02 in 30 W/m2
14:17 32.7 °F 31.6 °F 30.1 in ESE 2 mph 2 mph 96% 0.02 in 30 W/m2
14:22 32.7 °F 31.6 °F 30 in East 2.9 mph 3 mph 96% 0.02 in 25 W/m2
14:27 32.7 °F 31.6 °F 30 in Calm   4 mph 96% 0.03 in 23 W/m2
14:32 32.7 °F 31.6 °F 30 in East 2 mph 4 mph 96% 0.03 in 18 W/m2
14:37 32.7 °F 31.6 °F 30 in East 0.9 mph 2 mph 96% 0.02 in 12 W/m2
14:42 32.7 °F 31.6 °F 30 in East 0.9 mph 4 mph 96% 0.02 in 11 W/m2
14:47 32.7 °F 31.6 °F 30 in Calm   2 mph 96% 0.02 in 11 W/m2
14:52 32.7 °F 31.6 °F 30 in East 3 mph 3 mph 96% 0.02 in 9 W/m2
14:57 32.7 °F 31.6 °F 30 in Calm   1 mph 96% 0.02 in 7 W/m2
15:02 32.7 °F 31.6 °F 30 in Calm   1 mph 96% 0.02 in 5 W/m2
15:07 32.7 °F 31.6 °F 30 in Calm   2 mph 96% 0.02 in 7 W/m2
15:12 32.7 °F 31.6 °F 30 in East 0.9 mph 2 mph 96% 0.02 in 5 W/m2
15:17 32.5 °F 31.5 °F 30 in Calm   2 mph 96% 0.02 in 5 W/m2
15:22 32.5 °F 31.5 °F 30 in East 2 mph 2 mph 96% 0.02 in 5 W/m2
15:27 32.5 °F 31.5 °F 30 in ESE 0.9 mph 3 mph 96% 0.01 in 9 W/m2
15:32 32.5 °F 31.5 °F 30 in ESE 2 mph 3 mph 96% 0.01 in 7 W/m2
15:37 32.5 °F 31.5 °F 30 in ESE 2 mph 3 mph 96% 0.01 in 7 W/m2
15:42 32.4 °F 31.3 °F 30 in ESE 2 mph 3 mph 96% 0.02 in 9 W/m2
15:47 32.4 °F 31.3 °F 30 in ESE 2 mph 3 mph 96% 0.02 in 9 W/m2
15:52 32.2 °F 31.1 °F 30 in ESE 2.9 mph 3 mph 96% 0.01 in 7 W/m2
15:57 32.2 °F 31.1 °F 30 in East 2 mph 4 mph 96% 0.01 in 5 W/m2
16:02 32.2 °F 31.1 °F 30 in Calm   3 mph 96% 0.01 in 5 W/m2
16:07 32.2 °F 31.1 °F 30 in ENE 2 mph 3 mph 96% 0.01 in 5 W/m2
16:12 32.2 °F 31.1 °F 30 in ENE 2 mph 4 mph 96% 0.01 in 5 W/m2
16:17 32 °F 30.9 °F 30 in ESE 0.9 mph 4 mph 96% 0.01 in 5 W/m2
16:22 32 °F 30.9 °F 30 in ESE 0.9 mph 3 mph 96% 0.01 in 0 W/m2
16:27 32 °F 30.9 °F 30 in East 0.9 mph 3 mph 96% 0.01 in 0 W/m2
16:32 32 °F 30.9 °F 30 in East 0.9 mph 3 mph 96% 0.01 in 0 W/m2
16:37 32 °F 30.9 °F 30 in Calm   2 mph 96% 0.01 in 0 W/m2
16:42 32 °F 30.9 °F 30 in East 0.9 mph 3 mph 96% 0 in 0 W/m2
16:47 31.8 °F 30.7 °F 30 in East 2 mph 3 mph 96% 0 in 0 W/m2
16:52 31.8 °F 31.1 °F 30 in East 2.9 mph 4 mph 97% 0 in 0 W/m2
16:57 31.8 °F 31.1 °F 30 in East 0.9 mph 3 mph 97% 0 in 0 W/m2
17:02 31.8 °F 30.7 °F 30 in ESE 2.9 mph 3 mph 96% 0.01 in 0 W/m2
17:07 31.8 °F 30.7 °F 30 in ENE 2 mph 3 mph 96% 0.01 in 0 W/m2
17:12 31.8 °F 30.7 °F 30 in Calm   4 mph 96% 0.01 in 0 W/m2
17:17 31.8 °F 30.7 °F 30 in ESE 0.9 mph 3 mph 96% 0.01 in 0 W/m2
17:22 31.8 °F 30.7 °F 30 in East 0.9 mph 3 mph 96% 0.01 in 0 W/m2
17:27 31.8 °F 30.7 °F 30 in East 0.9 mph 3 mph 96% 0.01 in 0 W/m2
17:32 31.8 °F 30.7 °F 30 in East 0.9 mph 4 mph 96% 0.01 in 0 W/m2
17:37 31.8 °F 30.7 °F 30 in East 0.9 mph 2 mph 96% 0.01 in 0 W/m2
17:42 31.8 °F 30.7 °F 30 in East 0.9 mph 4 mph 96% 0.01 in 0 W/m2
17:47 31.8 °F 30.7 °F 30 in East 0.9 mph 2 mph 96% 0.01 in 0 W/m2
17:52 31.8 °F 30.7 °F 30 in ENE 0.9 mph 2 mph 96% 0.01 in 0 W/m2
17:57 31.8 °F 30.7 °F 30 in East 0.9 mph 3 mph 96% 0.01 in 0 W/m2
18:07 31.8 °F 30.7 °F 30 in East 0.9 mph 1 mph 96% 0 in 0 W/m2
18:12 31.8 °F 30.7 °F 30 in East 2 mph 2 mph 96% 0 in 0 W/m2
18:17 31.8 °F 30.7 °F 30 in East 0.9 mph 2 mph 96% 0 in 0 W/m2
18:22 31.8 °F 31.1 °F 30 in East 0.9 mph 2 mph 97% 0 in 0 W/m2
18:27 31.8 °F 31.1 °F 30 in Calm     97% 0 in 0 W/m2
18:33 31.8 °F 31.1 °F 30 in Calm     97% 0 in 0 W/m2
18:38 31.8 °F 31.1 °F 30 in Calm     97% 0.01 in 0 W/m2
18:43 31.8 °F 31.1 °F 30 in Calm     97% 0.01 in 0 W/m2
18:48 31.8 °F 31.1 °F 30 in Calm     97% 0.01 in 0 W/m2
18:53 31.8 °F 31.1 °F 30 in Calm     97% 0.01 in 0 W/m2
18:58 31.8 °F 31.1 °F 30 in Calm     97% 0.01 in 0 W/m2
19:03 31.8 °F 31.1 °F 30 in Calm     97% 0.01 in 0 W/m2
19:08 31.8 °F 31.1 °F 30 in Calm     97% 0.01 in 0 W/m2
19:13 31.8 °F 31.1 °F 30 in Calm     97% 0.01 in 0 W/m2
19:18 31.8 °F 31.1 °F 30 in Calm     97% 0.01 in 0 W/m2
19:23 31.8 °F 31.1 °F 30 in Calm     97% 0.01 in 0 W/m2
19:28 31.8 °F 31.1 °F 30 in Calm     97% 0.01 in 0 W/m2
19:33 31.8 °F 31.1 °F 30 in Calm     97% 0.01 in 0 W/m2
19:43 31.8 °F 31.1 °F 30 in Calm     97% 0 in 0 W/m2
19:48 31.8 °F 31.1 °F 30 in Calm     97% 0 in 0 W/m2
19:53 31.6 °F 30.9 °F 30 in Calm     97% 0 in 0 W/m2
19:58 31.6 °F 30.9 °F 30 in Calm     97% 0 in 0 W/m2
20:03 31.6 °F 30.9 °F 30 in Calm     97% 0 in 0 W/m2
20:08 31.6 °F 30.9 °F 30 in Calm     97% 0 in 0 W/m2
20:13 31.6 °F 30.9 °F 30 in Calm     97% 0 in 0 W/m2
20:18 31.6 °F 30.9 °F 30 in Calm     97% 0 in 0 W/m2
20:23 31.6 °F 30.9 °F 30 in Calm     97% 0 in 0 W/m2
20:28 31.6 °F 30.9 °F 30 in Calm     97% 0 in 0 W/m2
20:33 31.6 °F 30.9 °F 30 in Calm     97% 0 in 0 W/m2
20:38 31.6 °F 30.9 °F 30 in Calm     97% 0 in 0 W/m2
20:43 31.6 °F 30.9 °F 30 in Calm     97% 0 in 0 W/m2
20:48 31.8 °F 31.1 °F 30 in Calm     97% 0 in 0 W/m2
20:53 31.8 °F 31.1 °F 30 in Calm     97% 0 in 0 W/m2
20:58 31.8 °F 31.1 °F 30 in Calm     97% 0 in 0 W/m2
21:03 31.8 °F 31.1 °F 30 in Calm     97% 0 in 0 W/m2
21:08 31.8 °F 31.1 °F 30 in Calm     97% 0 in 0 W/m2
21:13 31.8 °F 31.1 °F 30 in Calm     97% 0 in 0 W/m2
21:18 31.8 °F 31.1 °F 30 in Calm     97% 0 in 0 W/m2
21:23 32 °F 31.3 °F 30 in Calm     97% 0 in 0 W/m2
21:28 32 °F 31.3 °F 30 in Calm     97% 0 in 0 W/m2
21:33 32 °F 31.3 °F 30 in Calm     97% 0 in 0 W/m2
21:38 32 °F 31.3 °F 30 in Calm     97% 0 in 0 W/m2
21:43 32 °F 31.3 °F 30 in Calm     97% 0 in 0 W/m2
21:48 31.8 °F 31.1 °F 30 in Calm     97% 0 in 0 W/m2
21:53 31.8 °F 31.1 °F 30 in Calm     97% 0 in 0 W/m2
21:58 31.8 °F 31.1 °F 30 in Calm     97% 0 in 0 W/m2
22:03 31.8 °F 31.1 °F 30 in Calm     97% 0 in 0 W/m2
22:08 31.8 °F 31.1 °F 30 in Calm     97% 0 in 0 W/m2
22:13 31.8 °F 31.1 °F 30 in Calm     97% 0 in 0 W/m2
22:18 31.8 °F 31.1 °F 30 in Calm     97% 0 in 0 W/m2
22:23 31.8 °F 31.1 °F 30 in Calm     97% 0 in 0 W/m2
22:28 31.8 °F 31.1 °F 30 in Calm     97% 0 in 0 W/m2
22:33 31.8 °F 31.1 °F 30 in Calm     97% 0 in 0 W/m2
22:38 31.8 °F 31.1 °F 30 in Calm     97% 0 in 0 W/m2
22:43 31.8 °F 31.1 °F 30 in Calm     97% 0 in 0 W/m2
22:48 31.8 °F 31.1 °F 30 in Calm     97% 0 in 0 W/m2
22:53 31.8 °F 31.1 °F 30 in Calm     97% 0 in 0 W/m2
22:58 31.8 °F 31.1 °F 30 in Calm     97% 0 in 0 W/m2
23:03 31.8 °F 31.1 °F 30 in Calm     97% 0 in 0 W/m2
23:08 31.8 °F 31.1 °F 30 in Calm     97% 0 in 0 W/m2
23:18 31.8 °F 31.1 °F 30 in Calm     97% 0 in 0 W/m2
23:23 31.8 °F 31.1 °F 30 in Calm     97% 0 in 0 W/m2
23:28 31.8 °F 31.1 °F 30 in Calm     97% 0 in 0 W/m2
23:33 31.8 °F 31.1 °F 30 in Calm     97% 0 in 0 W/m2
23:38 31.8 °F 31.1 °F 30 in Calm     97% 0 in 0 W/m2
23:43 31.8 °F 31.1 °F 30 in Calm     97% 0 in 0 W/m2
23:48 31.8 °F 31.1 °F 30 in Calm     97% 0 in 0 W/m2
23:53 31.8 °F 31.1 °F 30 in Calm     97% 0.01 in 0 W/m2
23:58 31.8 °F 31.1 °F 30 in Calm     97% 0.01 in 0 W/m2
Juneau County Weather
Compliments of Weather Underground - 4 mb